Accueil
METAR-TAF:

METAR-TAF

Aéroports :

Hunt Field

Lander, Wyoming, États-Unis

latitude: 42-48-53N, longitude: 108-43-41W, altitude: 1703 m

Observation

Le bulletin a été fait il y a 53 minutes, à 15:53 UTC
Vent 3 kt de sud-ouest
Température -8°C
Humidité 85%
Pression 1025 hPa
Visibilité: 16.1 km
Ciel clair

METAR: KLND 221553Z AUTO 23003KT 10SM CLR M08/M10 A3028 RMK AO2 SLP306 T10831100

Heure: 09:46 (16:46 UTC)

Prévision

Le bulletin a été fait il y a 5 heures et 7 minutes, à 11:39 UTC
Prévision valable du 22 à 12 UTC au 23 à 12 UTC
Vent 5 kt de direction variable
Visibilité: 10 km
Nuages épars à une hauteur de 10000 ft
Nuages fragmentés à une hauteur de 20000 ft

TAF: KLND 221139Z 2212/2312 VRB05KT P6SM SCT100 BKN200

Observations et prévisions météorologiques de plus de 4000 aéroports (messages METAR et TAF).

Les stations disponibles sont représentées par des disques jaunes et rouges sur la carte.

Passer la souris dessus pour voir le nom de la station.

Cliquer dessus pour voir les observations et prévisions météorologiques.

Pour changer de carte: cliquez sur les boutons verts avec une croix noire pour zoomer, sur le bouton vert avec un tiret pour effectuer un zoom arrière, ou sur les flèches vertes pour les cartes adjacentes.


METAR-TAF: